sensor_id;sensor_type;location;lat;lon;timestamp;pressure;altitude;pressure_sealevel;temperature;humidity
74045;BME280;62389;51.412;5.436;2024-02-21T00:01:39;102150.88;;;8.16;100.00
74045;BME280;62389;51.412;5.436;2024-02-21T00:04:05;102145.66;;;8.16;100.00
74045;BME280;62389;51.412;5.436;2024-02-21T00:06:31;102148.28;;;8.15;100.00
74045;BME280;62389;51.412;5.436;2024-02-21T00:08:56;102148.28;;;8.15;100.00
74045;BME280;62389;51.412;5.436;2024-02-21T00:11:22;102148.25;;;8.16;100.00
74045;BME280;62389;51.412;5.436;2024-02-21T00:13:47;102146.56;;;8.15;100.00
74045;BME280;62389;51.412;5.436;2024-02-21T00:16:12;102146.56;;;8.14;100.00
74045;BME280;62389;51.412;5.436;2024-02-21T00:18:40;102157.88;;;8.14;100.00
74045;BME280;62389;51.412;5.436;2024-02-21T00:21:06;102157.88;;;8.14;100.00
74045;BME280;62389;51.412;5.436;2024-02-21T00:23:31;102156.09;;;8.16;100.00
74045;BME280;62389;51.412;5.436;2024-02-21T00:25:56;102153.47;;;8.16;100.00
74045;BME280;62389;51.412;5.436;2024-02-21T00:28:22;102150.00;;;8.16;100.00
74045;BME280;62389;51.412;5.436;2024-02-21T00:30:47;102156.09;;;8.16;100.00
74045;BME280;62389;51.412;5.436;2024-02-21T00:33:13;102144.81;;;8.16;100.00
74045;BME280;62389;51.412;5.436;2024-02-21T00:35:39;102144.84;;;8.14;100.00
74045;BME280;62389;51.412;5.436;2024-02-21T00:38:04;102130.91;;;8.15;100.00
74045;BME280;62389;51.412;5.436;2024-02-21T00:40:30;102123.97;;;8.14;100.00
74045;BME280;62389;51.412;5.436;2024-02-21T00:42:55;102118.78;;;8.11;100.00
74045;BME280;62389;51.412;5.436;2024-02-21T00:45:20;102111.84;;;8.12;100.00
74045;BME280;62389;51.412;5.436;2024-02-21T00:47:46;102108.41;;;8.08;100.00
74045;BME280;62389;51.412;5.436;2024-02-21T00:50:11;102104.97;;;8.06;100.00
74045;BME280;62389;51.412;5.436;2024-02-21T00:52:36;102091.97;;;8.04;100.00
74045;BME280;62389;51.412;5.436;2024-02-21T00:55:02;102098.94;;;8.02;100.00
74045;BME280;62389;51.412;5.436;2024-02-21T00:57:27;102081.56;;;8.01;100.00
74045;BME280;62389;51.412;5.436;2024-02-21T00:59:53;102079.03;;;7.97;100.00
74045;BME280;62389;51.412;5.436;2024-02-21T01:02:18;102086.88;;;7.95;100.00
74045;BME280;62389;51.412;5.436;2024-02-21T01:04:44;102098.19;;;7.94;100.00
74045;BME280;62389;51.412;5.436;2024-02-21T01:07:09;102112.94;;;7.94;100.00
74045;BME280;62389;51.412;5.436;2024-02-21T01:09:34;102099.06;;;7.92;100.00
74045;BME280;62389;51.412;5.436;2024-02-21T01:12:00;102095.66;;;7.88;100.00
74045;BME280;62389;51.412;5.436;2024-02-21T01:14:25;102096.47;;;7.92;100.00
74045;BME280;62389;51.412;5.436;2024-02-21T01:16:50;102086.97;;;7.89;100.00
74045;BME280;62389;51.412;5.436;2024-02-21T01:19:16;102084.34;;;7.89;100.00
74045;BME280;62389;51.412;5.436;2024-02-21T01:21:41;102080.03;;;7.88;100.00
74045;BME280;62389;51.412;5.436;2024-02-21T01:24:06;102064.41;;;7.87;100.00
74045;BME280;62389;51.412;5.436;2024-02-21T01:26:32;102058.31;;;7.88;100.00
74045;BME280;62389;51.412;5.436;2024-02-21T01:28:57;102049.66;;;7.86;100.00
74045;BME280;62389;51.412;5.436;2024-02-21T01:31:22;102053.97;;;7.87;100.00
74045;BME280;62389;51.412;5.436;2024-02-21T01:33:48;102061.81;;;7.85;100.00
74045;BME280;62389;51.412;5.436;2024-02-21T01:36:13;102063.56;;;7.85;100.00
74045;BME280;62389;51.412;5.436;2024-02-21T01:38:39;102057.50;;;7.83;100.00
74045;BME280;62389;51.412;5.436;2024-02-21T01:41:04;102048.81;;;7.82;100.00
74045;BME280;62389;51.412;5.436;2024-02-21T01:43:29;102057.50;;;7.83;100.00
74045;BME280;62389;51.412;5.436;2024-02-21T01:45:56;102043.63;;;7.84;100.00
74045;BME280;62389;51.412;5.436;2024-02-21T01:48:23;102042.75;;;7.83;100.00
74045;BME280;62389;51.412;5.436;2024-02-21T01:50:49;102042.75;;;7.83;100.00
74045;BME280;62389;51.412;5.436;2024-02-21T01:53:43;102045.34;;;7.85;100.00
74045;BME280;62389;51.412;5.436;2024-02-21T01:56:10;102042.69;;;7.86;100.00
74045;BME280;62389;51.412;5.436;2024-02-21T01:58:37;102041.84;;;7.86;100.00
74045;BME280;62389;51.412;5.436;2024-02-21T02:01:04;102055.72;;;7.86;100.00
74045;BME280;62389;51.412;5.436;2024-02-21T02:03:29;102056.66;;;7.84;100.00
74045;BME280;62389;51.412;5.436;2024-02-21T02:05:55;102060.03;;;7.87;100.00
74045;BME280;62389;51.412;5.436;2024-02-21T02:08:21;102052.28;;;7.84;100.00
74045;BME280;62389;51.412;5.436;2024-02-21T02:10:49;102047.09;;;7.84;100.00
74045;BME280;62389;51.412;5.436;2024-02-21T02:13:14;102041.00;;;7.84;100.00
74045;BME280;62389;51.412;5.436;2024-02-21T02:15:47;102038.34;;;7.87;100.00
74045;BME280;62389;51.412;5.436;2024-02-21T02:18:14;102030.53;;;7.87;100.00
74045;BME280;62389;51.412;5.436;2024-02-21T02:20:40;102026.22;;;7.86;100.00
74045;BME280;62389;51.412;5.436;2024-02-21T02:25:47;102031.41;;;7.86;100.00
74045;BME280;62389;51.412;5.436;2024-02-21T02:28:17;102017.56;;;7.84;100.00
74045;BME280;62389;51.412;5.436;2024-02-21T02:30:43;102013.22;;;7.84;100.00
74045;BME280;62389;51.412;5.436;2024-02-21T02:33:08;102008.00;;;7.84;100.00
74045;BME280;62389;51.412;5.436;2024-02-21T02:35:34;101998.44;;;7.85;100.00
74045;BME280;62389;51.412;5.436;2024-02-21T02:38:02;101993.31;;;7.80;100.00
74045;BME280;62389;51.412;5.436;2024-02-21T02:40:27;101990.69;;;7.80;100.00
74045;BME280;62389;51.412;5.436;2024-02-21T02:42:53;101995.94;;;7.78;100.00
74045;BME280;62389;51.412;5.436;2024-02-21T02:45:20;101990.69;;;7.80;100.00
74045;BME280;62389;51.412;5.436;2024-02-21T02:47:47;101997.66;;;7.79;100.00
74045;BME280;62389;51.412;5.436;2024-02-21T02:50:13;101993.31;;;7.78;100.00
74045;BME280;62389;51.412;5.436;2024-02-21T02:52:38;101988.13;;;7.78;100.00
74045;BME280;62389;51.412;5.436;2024-02-21T02:55:05;101983.75;;;7.81;100.00
74045;BME280;62389;51.412;5.436;2024-02-21T02:57:30;101975.94;;;7.81;100.00
74045;BME280;62389;51.412;5.436;2024-02-21T02:59:56;101973.31;;;7.81;100.00
74045;BME280;62389;51.412;5.436;2024-02-21T03:02:21;101965.50;;;7.81;100.00
74045;BME280;62389;51.412;5.436;2024-02-21T03:04:46;101955.97;;;7.79;100.00
74045;BME280;62389;51.412;5.436;2024-02-21T03:07:13;101949.88;;;7.81;100.00
74045;BME280;62389;51.412;5.436;2024-02-21T03:09:39;101949.88;;;7.81;100.00
74045;BME280;62389;51.412;5.436;2024-02-21T03:12:05;101960.28;;;7.81;100.00
74045;BME280;62389;51.412;5.436;2024-02-21T03:14:32;101956.84;;;7.80;100.00
74045;BME280;62389;51.412;5.436;2024-02-21T03:17:00;101960.28;;;7.81;100.00
74045;BME280;62389;51.412;5.436;2024-02-21T03:19:26;101962.00;;;7.82;100.00
74045;BME280;62389;51.412;5.436;2024-02-21T03:21:52;101955.06;;;7.82;100.00
74045;BME280;62389;51.412;5.436;2024-02-21T03:24:18;101946.34;;;7.85;100.00
74045;BME280;62389;51.412;5.436;2024-02-21T03:26:43;101937.66;;;7.86;100.00
74045;BME280;62389;51.412;5.436;2024-02-21T03:29:10;101938.50;;;7.86;100.00
74045;BME280;62389;51.412;5.436;2024-02-21T03:31:36;101935.03;;;7.86;100.00
74045;BME280;62389;51.412;5.436;2024-02-21T03:34:02;101930.72;;;7.85;100.00
74045;BME280;62389;51.412;5.436;2024-02-21T03:36:27;101935.03;;;7.86;100.00
74045;BME280;62389;51.412;5.436;2024-02-21T03:38:54;101931.63;;;7.84;100.00
74045;BME280;62389;51.412;5.436;2024-02-21T03:41:19;101922.91;;;7.85;100.00
74045;BME280;62389;51.412;5.436;2024-02-21T03:43:44;101915.94;;;7.85;100.00
74045;BME280;62389;51.412;5.436;2024-02-21T03:46:10;101919.44;;;7.84;100.00
74045;BME280;62389;51.412;5.436;2024-02-21T03:48:35;101908.16;;;7.82;100.00
74045;BME280;62389;51.412;5.436;2024-02-21T03:51:01;101909.06;;;7.81;100.00
74045;BME280;62389;51.412;5.436;2024-02-21T03:53:27;101903.00;;;7.81;100.00
74045;BME280;62389;51.412;5.436;2024-02-21T03:55:53;101903.84;;;7.81;100.00
74045;BME280;62389;51.412;5.436;2024-02-21T03:58:18;101893.47;;;7.79;100.00
74045;BME280;62389;51.412;5.436;2024-02-21T04:00:44;101893.47;;;7.78;100.00
74045;BME280;62389;51.412;5.436;2024-02-21T04:03:09;101893.50;;;7.76;100.00
74045;BME280;62389;51.412;5.436;2024-02-21T04:05:34;101895.25;;;7.76;100.00
74045;BME280;62389;51.412;5.436;2024-02-21T04:08:04;101890.97;;;7.73;100.00
74045;BME280;62389;51.412;5.436;2024-02-21T04:10:30;101890.97;;;7.72;100.00
74045;BME280;62389;51.412;5.436;2024-02-21T04:12:55;101894.50;;;7.69;100.00
74045;BME280;62389;51.412;5.436;2024-02-21T04:15:20;101893.63;;;7.69;100.00
74045;BME280;62389;51.412;5.436;2024-02-21T04:17:46;101893.63;;;7.69;100.00
74045;BME280;62389;51.412;5.436;2024-02-21T04:20:16;101894.50;;;7.68;100.00
74045;BME280;62389;51.412;5.436;2024-02-21T04:22:45;101897.19;;;7.63;100.00
74045;BME280;62389;51.412;5.436;2024-02-21T04:25:11;101899.78;;;7.63;100.00
74045;BME280;62389;51.412;5.436;2024-02-21T04:27:38;101895.41;;;7.65;100.00
74045;BME280;62389;51.412;5.436;2024-02-21T04:30:04;101893.66;;;7.66;100.00
74045;BME280;62389;51.412;5.436;2024-02-21T04:32:29;101898.88;;;7.66;100.00
74045;BME280;62389;51.412;5.436;2024-02-21T04:34:55;101894.50;;;7.68;100.00
74045;BME280;62389;51.412;5.436;2024-02-21T04:37:20;101892.78;;;7.68;100.00
74045;BME280;62389;51.412;5.436;2024-02-21T04:39:46;101893.59;;;7.70;100.00
74045;BME280;62389;51.412;5.436;2024-02-21T04:42:11;101901.41;;;7.70;100.00
74045;BME280;62389;51.412;5.436;2024-02-21T04:44:37;101897.06;;;7.71;100.00
74045;BME280;62389;51.412;5.436;2024-02-21T04:47:03;101890.09;;;7.71;100.00
74045;BME280;62389;51.412;5.436;2024-02-21T04:49:29;101891.88;;;7.69;100.00
74045;BME280;62389;51.412;5.436;2024-02-21T04:51:54;101886.69;;;7.69;100.00
74045;BME280;62389;51.412;5.436;2024-02-21T04:54:19;101897.09;;;7.69;100.00
74045;BME280;62389;51.412;5.436;2024-02-21T04:56:45;101884.06;;;7.69;100.00
74045;BME280;62389;51.412;5.436;2024-02-21T04:59:10;101889.28;;;7.69;100.00
74045;BME280;62389;51.412;5.436;2024-02-21T05:01:36;101878.00;;;7.69;100.00
74045;BME280;62389;51.412;5.436;2024-02-21T05:04:01;101875.41;;;7.67;100.00
74045;BME280;62389;51.412;5.436;2024-02-21T05:06:27;101867.59;;;7.69;100.00
74045;BME280;62389;51.412;5.436;2024-02-21T05:08:53;101864.97;;;7.70;100.00
74045;BME280;62389;51.412;5.436;2024-02-21T05:11:20;101864.06;;;7.71;100.00
74045;BME280;62389;51.412;5.436;2024-02-21T05:13:45;101870.13;;;7.72;100.00
74045;BME280;62389;51.412;5.436;2024-02-21T05:16:10;101873.59;;;7.72;100.00
74045;BME280;62389;51.412;5.436;2024-02-21T05:18:36;101862.31;;;7.72;100.00
74045;BME280;62389;51.412;5.436;2024-02-21T05:21:01;101864.97;;;7.70;100.00
74045;BME280;62389;51.412;5.436;2024-02-21T05:23:27;101859.75;;;7.70;100.00
74045;BME280;62389;51.412;5.436;2024-02-21T05:25:52;101852.81;;;7.68;100.00
74045;BME280;62389;51.412;5.436;2024-02-21T05:28:17;101845.06;;;7.66;100.00
74045;BME280;62389;51.412;5.436;2024-02-21T05:30:43;101834.66;;;7.65;100.00
74045;BME280;62389;51.412;5.436;2024-02-21T05:33:08;101833.78;;;7.66;100.00
74045;BME280;62389;51.412;5.436;2024-02-21T05:35:34;101830.31;;;7.65;100.00
74045;BME280;62389;51.412;5.436;2024-02-21T05:38:00;101826.00;;;7.64;100.00
74045;BME280;62389;51.412;5.436;2024-02-21T05:40:25;101818.19;;;7.64;100.00
74045;BME280;62389;51.412;5.436;2024-02-21T05:42:51;101819.94;;;7.64;100.00
74045;BME280;62389;51.412;5.436;2024-02-21T05:45:20;101821.69;;;7.63;100.00
74045;BME280;62389;51.412;5.436;2024-02-21T05:47:45;101816.47;;;7.63;100.00
74045;BME280;62389;51.412;5.436;2024-02-21T05:50:11;101819.94;;;7.64;100.00
74045;BME280;62389;51.412;5.436;2024-02-21T05:52:36;101805.16;;;7.63;100.00
74045;BME280;62389;51.412;5.436;2024-02-21T05:55:01;101810.38;;;7.64;100.00
74045;BME280;62389;51.412;5.436;2024-02-21T05:57:27;101811.25;;;7.63;100.00
74045;BME280;62389;51.412;5.436;2024-02-21T05:59:52;101812.13;;;7.62;100.00
74045;BME280;62389;51.412;5.436;2024-02-21T06:02:18;101804.31;;;7.62;100.00
74045;BME280;62389;51.412;5.436;2024-02-21T06:04:43;101800.84;;;7.63;100.00
74045;BME280;62389;51.412;5.436;2024-02-21T06:07:09;101799.06;;;7.65;100.00
74045;BME280;62389;51.412;5.436;2024-02-21T06:09:35;101793.88;;;7.65;100.00
74045;BME280;62389;51.412;5.436;2024-02-21T06:12:00;101783.44;;;7.65;100.00
74045;BME280;62389;51.412;5.436;2024-02-21T06:14:26;101773.03;;;7.65;100.00
74045;BME280;62389;51.412;5.436;2024-02-21T06:16:51;101768.66;;;7.67;100.00
74045;BME280;62389;51.412;5.436;2024-02-21T06:19:16;101760.00;;;7.65;100.00
74045;BME280;62389;51.412;5.436;2024-02-21T06:21:42;101767.81;;;7.65;100.00
74045;BME280;62389;51.412;5.436;2024-02-21T06:24:07;101771.31;;;7.64;100.00
74045;BME280;62389;51.412;5.436;2024-02-21T06:26:33;101769.59;;;7.63;100.00
74045;BME280;62389;51.412;5.436;2024-02-21T06:28:58;101767.00;;;7.62;100.00
74045;BME280;62389;51.412;5.436;2024-02-21T06:31:25;101768.72;;;7.63;100.00
74045;BME280;62389;51.412;5.436;2024-02-21T06:33:50;101770.47;;;7.62;100.00
74045;BME280;62389;51.412;5.436;2024-02-21T06:36:16;101764.41;;;7.63;100.00
74045;BME280;62389;51.412;5.436;2024-02-21T06:38:41;101764.41;;;7.63;100.00
74045;BME280;62389;51.412;5.436;2024-02-21T06:41:14;101773.06;;;7.64;100.00
74045;BME280;62389;51.412;5.436;2024-02-21T06:43:40;101770.47;;;7.64;100.00
74045;BME280;62389;51.412;5.436;2024-02-21T06:46:05;101762.66;;;7.62;100.00
74045;BME280;62389;51.412;5.436;2024-02-21T06:48:30;101770.47;;;7.62;100.00
74045;BME280;62389;51.412;5.436;2024-02-21T06:50:56;101766.16;;;7.61;100.00
74045;BME280;62389;51.412;5.436;2024-02-21T06:53:21;101768.78;;;7.60;100.00
74045;BME280;62389;51.412;5.436;2024-02-21T06:55:46;101774.84;;;7.60;100.00
74045;BME280;62389;51.412;5.436;2024-02-21T06:58:12;101776.56;;;7.61;100.00
74045;BME280;62389;51.412;5.436;2024-02-21T07:00:39;101776.59;;;7.60;100.00
74045;BME280;62389;51.412;5.436;2024-02-21T07:03:05;101778.31;;;7.61;100.00
74045;BME280;62389;51.412;5.436;2024-02-21T07:05:30;101776.56;;;7.61;100.00
74045;BME280;62389;51.412;5.436;2024-02-21T07:07:56;101765.25;;;7.62;100.00
74045;BME280;62389;51.412;5.436;2024-02-21T07:10:21;101759.16;;;7.65;100.00
74045;BME280;62389;51.412;5.436;2024-02-21T07:12:46;101764.41;;;7.63;100.00
74045;BME280;62389;51.412;5.436;2024-02-21T07:15:12;101753.09;;;7.63;100.00
74045;BME280;62389;51.412;5.436;2024-02-21T07:17:37;101754.84;;;7.64;100.00
74045;BME280;62389;51.412;5.436;2024-02-21T07:20:03;101748.78;;;7.63;100.00
74045;BME280;62389;51.412;5.436;2024-02-21T07:22:28;101750.50;;;7.64;100.00
74045;BME280;62389;51.412;5.436;2024-02-21T07:24:54;101747.88;;;7.63;100.00
74045;BME280;62389;51.412;5.436;2024-02-21T07:27:19;101747.88;;;7.63;100.00
74045;BME280;62389;51.412;5.436;2024-02-21T07:29:45;101752.25;;;7.62;100.00
74045;BME280;62389;51.412;5.436;2024-02-21T07:32:12;101752.25;;;7.62;100.00
74045;BME280;62389;51.412;5.436;2024-02-21T07:34:38;101738.38;;;7.63;100.00
74045;BME280;62389;51.412;5.436;2024-02-21T07:37:03;101727.91;;;7.65;100.00
74045;BME280;62389;51.412;5.436;2024-02-21T07:39:28;101735.69;;;7.66;100.00
74045;BME280;62389;51.412;5.436;2024-02-21T07:41:54;101726.13;;;7.68;100.00
74045;BME280;62389;51.412;5.436;2024-02-21T07:44:19;101725.22;;;7.69;100.00
74045;BME280;62389;51.412;5.436;2024-02-21T07:46:44;101713.03;;;7.71;100.00
74045;BME280;62389;51.412;5.436;2024-02-21T07:49:10;101716.50;;;7.72;100.00
74045;BME280;62389;51.412;5.436;2024-02-21T07:51:35;101696.47;;;7.75;100.00
74045;BME280;62389;51.412;5.436;2024-02-21T07:54:01;101701.63;;;7.78;100.00
74045;BME280;62389;51.412;5.436;2024-02-21T07:56:27;101691.13;;;7.82;100.00
74045;BME280;62389;51.412;5.436;2024-02-21T07:58:53;101692.00;;;7.82;100.00
74045;BME280;62389;51.412;5.436;2024-02-21T08:01:21;101689.44;;;7.81;100.00
74045;BME280;62389;51.412;5.436;2024-02-21T08:03:47;101682.50;;;7.79;100.00
74045;BME280;62389;51.412;5.436;2024-02-21T08:06:12;101683.31;;;7.82;100.00
74045;BME280;62389;51.412;5.436;2024-02-21T08:08:38;101687.63;;;7.83;100.00
74045;BME280;62389;51.412;5.436;2024-02-21T08:11:04;101688.50;;;7.85;100.00
74045;BME280;62389;51.412;5.436;2024-02-21T08:13:29;101674.63;;;7.84;100.00
74045;BME280;62389;51.412;5.436;2024-02-21T08:15:55;101673.72;;;7.85;100.00
74045;BME280;62389;51.412;5.436;2024-02-21T08:18:20;101663.28;;;7.85;100.00
74045;BME280;62389;51.412;5.436;2024-02-21T08:20:46;101668.47;;;7.87;100.00
74045;BME280;62389;51.412;5.436;2024-02-21T08:23:11;101666.72;;;7.89;100.00
74045;BME280;62389;51.412;5.436;2024-02-21T08:25:37;101658.81;;;7.92;100.00
74045;BME280;62389;51.412;5.436;2024-02-21T08:28:02;101656.16;;;7.95;100.00
74045;BME280;62389;51.412;5.436;2024-02-21T08:30:28;101645.75;;;7.95;100.00
74045;BME280;62389;51.412;5.436;2024-02-21T08:32:53;101643.13;;;7.95;100.00
74045;BME280;62389;51.412;5.436;2024-02-21T08:35:21;101632.75;;;7.93;100.00
74045;BME280;62389;51.412;5.436;2024-02-21T08:37:50;101634.53;;;7.91;100.00
74045;BME280;62389;51.412;5.436;2024-02-21T08:40:15;101631.03;;;7.92;100.00
74045;BME280;62389;51.412;5.436;2024-02-21T08:42:46;101625.81;;;7.92;100.00
74045;BME280;62389;51.412;5.436;2024-02-21T08:45:12;101632.75;;;7.93;100.00
74045;BME280;62389;51.412;5.436;2024-02-21T08:47:40;101626.63;;;7.96;100.00
74045;BME280;62389;51.412;5.436;2024-02-21T08:50:07;101631.88;;;7.93;100.00
74045;BME280;62389;51.412;5.436;2024-02-21T08:52:32;101619.81;;;7.89;100.00
74045;BME280;62389;51.412;5.436;2024-02-21T08:54:58;101621.59;;;7.87;100.00
74045;BME280;62389;51.412;5.436;2024-02-21T08:57:23;101612.09;;;7.84;100.00
74045;BME280;62389;51.412;5.436;2024-02-21T08:59:48;101602.53;;;7.85;100.00
74045;BME280;62389;51.412;5.436;2024-02-21T09:02:14;101606.84;;;7.86;100.00
74045;BME280;62389;51.412;5.436;2024-02-21T09:04:41;101590.41;;;7.84;100.00
74045;BME280;62389;51.412;5.436;2024-02-21T09:07:07;101590.34;;;7.87;100.00
74045;BME280;62389;51.412;5.436;2024-02-21T09:09:32;101592.94;;;7.88;100.00
74045;BME280;62389;51.412;5.436;2024-02-21T09:11:58;101586.88;;;7.86;100.00
74045;BME280;62389;51.412;5.436;2024-02-21T09:14:30;101593.84;;;7.86;100.00
74045;BME280;62389;51.412;5.436;2024-02-21T09:16:56;101593.06;;;7.81;100.00
74045;BME280;62389;51.412;5.436;2024-02-21T09:19:21;101583.53;;;7.79;100.00
74045;BME280;62389;51.412;5.436;2024-02-21T09:21:47;101580.94;;;7.79;100.00
74045;BME280;62389;51.412;5.436;2024-02-21T09:24:12;101583.53;;;7.79;100.00
74045;BME280;62389;51.412;5.436;2024-02-21T09:26:37;101581.75;;;7.82;100.00
74045;BME280;62389;51.412;5.436;2024-02-21T09:29:03;101574.84;;;7.81;100.00
74045;BME280;62389;51.412;5.436;2024-02-21T09:31:29;101586.97;;;7.82;100.00
74045;BME280;62389;51.412;5.436;2024-02-21T09:33:54;101586.97;;;7.82;100.00
74045;BME280;62389;51.412;5.436;2024-02-21T09:36:19;101576.53;;;7.82;100.00
74045;BME280;62389;51.412;5.436;2024-02-21T09:38:46;101572.22;;;7.81;100.00
74045;BME280;62389;51.412;5.436;2024-02-21T09:41:22;101561.78;;;7.82;100.00
74045;BME280;62389;51.412;5.436;2024-02-21T09:43:50;101552.19;;;7.84;100.00
74045;BME280;62389;51.412;5.436;2024-02-21T09:46:19;101544.31;;;7.87;100.00
74045;BME280;62389;51.412;5.436;2024-02-21T09:51:15;101522.47;;;7.93;100.00
74045;BME280;62389;51.412;5.436;2024-02-21T09:53:42;101525.84;;;7.98;100.00
74045;BME280;62389;51.412;5.436;2024-02-21T09:56:08;101517.16;;;7.99;100.00
74045;BME280;62389;51.412;5.436;2024-02-21T09:58:34;101503.97;;;8.05;100.00
74045;BME280;62389;51.412;5.436;2024-02-21T10:01:00;101502.19;;;8.09;100.00
74045;BME280;62389;51.412;5.436;2024-02-21T10:03:25;101488.19;;;8.11;100.00
74045;BME280;62389;51.412;5.436;2024-02-21T10:05:51;101480.31;;;8.14;100.00
74045;BME280;62389;51.412;5.436;2024-02-21T10:08:16;101475.03;;;8.17;100.00
74045;BME280;62389;51.412;5.436;2024-02-21T10:10:43;101474.16;;;8.18;100.00
74045;BME280;62389;51.412;5.436;2024-02-21T10:13:10;101463.59;;;8.24;100.00
74045;BME280;62389;51.412;5.436;2024-02-21T10:15:36;101462.63;;;8.28;100.00
74045;BME280;62389;51.412;5.436;2024-02-21T10:18:01;101452.94;;;8.34;100.00
74045;BME280;62389;51.412;5.436;2024-02-21T10:20:31;101453.63;;;8.42;100.00
74045;BME280;62389;51.412;5.436;2024-02-21T10:23:01;101430.91;;;8.47;100.00
74045;BME280;62389;51.412;5.436;2024-02-21T10:25:33;101429.03;;;8.52;100.00
74045;BME280;62389;51.412;5.436;2024-02-21T10:27:59;101413.31;;;8.55;100.00
74045;BME280;62389;51.412;5.436;2024-02-21T10:30:24;101413.22;;;8.58;100.00
74045;BME280;62389;51.412;5.436;2024-02-21T10:32:53;101403.63;;;8.60;100.00
74045;BME280;62389;51.412;5.436;2024-02-21T10:35:29;101393.94;;;8.65;100.00
74045;BME280;62389;51.412;5.436;2024-02-21T10:37:55;101379.91;;;8.69;100.00
74045;BME280;62389;51.412;5.436;2024-02-21T10:40:25;101368.53;;;8.72;100.00
74045;BME280;62389;51.412;5.436;2024-02-21T10:42:58;101352.75;;;8.76;100.00
74045;BME280;62389;51.412;5.436;2024-02-21T10:45:30;101350.88;;;8.81;100.00
74045;BME280;62389;51.412;5.436;2024-02-21T10:48:16;101343.03;;;8.81;100.00
74045;BME280;62389;51.412;5.436;2024-02-21T10:50:56;101344.66;;;8.86;100.00
74045;BME280;62389;51.412;5.436;2024-02-21T10:56:28;101335.03;;;8.88;100.00
74045;BME280;62389;51.412;5.436;2024-02-21T10:58:53;101338.50;;;8.88;100.00
74045;BME280;62389;51.412;5.436;2024-02-21T11:01:22;101342.78;;;8.91;100.00
74045;BME280;62389;51.412;5.436;2024-02-21T11:03:53;101348.00;;;8.91;100.00
74045;BME280;62389;51.412;5.436;2024-02-21T11:06:20;101345.41;;;8.91;100.00
74045;BME280;62389;51.412;5.436;2024-02-21T11:08:47;101343.72;;;8.88;100.00
74045;BME280;62389;51.412;5.436;2024-02-21T11:11:13;101346.31;;;8.88;100.00
74045;BME280;62389;51.412;5.436;2024-02-21T11:13:44;101353.28;;;8.88;100.00
74045;BME280;62389;51.412;5.436;2024-02-21T11:16:12;101328.03;;;8.90;100.00
74045;BME280;62389;51.412;5.436;2024-02-21T11:18:46;101323.56;;;8.93;100.00
74045;BME280;62389;51.412;5.436;2024-02-21T11:21:11;101315.75;;;8.93;100.00
74045;BME280;62389;51.412;5.436;2024-02-21T11:23:36;101312.16;;;8.97;100.00
74045;BME280;62389;51.412;5.436;2024-02-21T11:26:17;101310.25;;;9.02;100.00
74045;BME280;62389;51.412;5.436;2024-02-21T11:28:44;101298.78;;;9.08;100.00
74045;BME280;62389;51.412;5.436;2024-02-21T11:31:13;101291.44;;;9.21;100.00
74045;BME280;62389;51.412;5.436;2024-02-21T11:33:42;101275.38;;;9.33;100.00
74045;BME280;62389;51.412;5.436;2024-02-21T11:36:23;101275.78;;;9.49;100.00
74045;BME280;62389;51.412;5.436;2024-02-21T11:38:50;101276.38;;;9.57;100.00
74045;BME280;62389;51.412;5.436;2024-02-21T11:41:15;101270.84;;;9.66;100.00
74045;BME280;62389;51.412;5.436;2024-02-21T11:43:41;101264.66;;;9.69;100.00
74045;BME280;62389;51.412;5.436;2024-02-21T11:46:06;101272.53;;;9.67;100.00
74045;BME280;62389;51.412;5.436;2024-02-21T11:48:32;101264.97;;;9.59;100.00
74045;BME280;62389;51.412;5.436;2024-02-21T11:50:57;101256.38;;;9.56;100.00
74045;BME280;62389;51.412;5.436;2024-02-21T11:53:23;101244.38;;;9.50;100.00
74045;BME280;62389;51.412;5.436;2024-02-21T11:55:49;101234.69;;;9.54;100.00
74045;BME280;62389;51.412;5.436;2024-02-21T11:58:15;101207.56;;;9.58;100.00
74045;BME280;62389;51.412;5.436;2024-02-21T12:00:41;101211.56;;;9.68;100.00
74045;BME280;62389;51.412;5.436;2024-02-21T12:03:07;101192.88;;;9.80;100.00
74045;BME280;62389;51.412;5.436;2024-02-21T12:05:32;101182.81;;;9.95;100.00
74045;BME280;62389;51.412;5.436;2024-02-21T12:07:58;101187.63;;;10.05;100.00
74045;BME280;62389;51.412;5.436;2024-02-21T12:10:25;101187.41;;;10.11;100.00
74045;BME280;62389;51.412;5.436;2024-02-21T12:12:51;101169.00;;;10.15;100.00
74045;BME280;62389;51.412;5.436;2024-02-21T12:15:18;101161.00;;;10.19;100.00
74045;BME280;62389;51.412;5.436;2024-02-21T12:17:44;101157.41;;;10.22;100.00
74045;BME280;62389;51.412;5.436;2024-02-21T12:20:10;101149.72;;;10.17;100.00
74045;BME280;62389;51.412;5.436;2024-02-21T12:22:37;101133.97;;;10.19;100.00
74045;BME280;62389;51.412;5.436;2024-02-21T12:25:23;101120.75;;;10.23;100.00
74045;BME280;62389;51.412;5.436;2024-02-21T12:27:51;101124.91;;;10.29;100.00
74045;BME280;62389;51.412;5.436;2024-02-21T12:30:16;101125.91;;;10.26;100.00
74045;BME280;62389;51.412;5.436;2024-02-21T12:32:42;101130.34;;;10.24;100.00
74045;BME280;62389;51.412;5.436;2024-02-21T12:35:08;101106.03;;;10.21;100.00
74045;BME280;62389;51.412;5.436;2024-02-21T12:37:33;101106.91;;;10.21;100.00
74045;BME280;62389;51.412;5.436;2024-02-21T12:39:59;101098.38;;;10.16;100.00
74045;BME280;62389;51.412;5.436;2024-02-21T12:42:25;101089.03;;;10.09;100.00
74045;BME280;62389;51.412;5.436;2024-02-21T12:44:51;101080.53;;;10.04;100.00
74045;BME280;62389;51.412;5.436;2024-02-21T12:47:18;101080.72;;;9.99;100.00
74045;BME280;62389;51.412;5.436;2024-02-21T12:49:45;101072.13;;;9.96;100.00
74045;BME280;62389;51.412;5.436;2024-02-21T12:52:10;101060.00;;;9.95;100.00
74045;BME280;62389;51.412;5.436;2024-02-21T12:54:36;101057.47;;;9.92;100.00